createdAt,value
2019-03-23T00:01:54.139Z,7.00
2019-03-23T00:04:25.445Z,6.40
2019-03-23T00:06:55.393Z,6.77
2019-03-23T00:09:25.003Z,6.43
2019-03-23T00:11:56.806Z,6.40
2019-03-23T00:14:26.433Z,6.40
2019-03-23T00:16:58.260Z,6.33
2019-03-23T00:19:30.152Z,6.17
2019-03-23T00:21:59.772Z,6.27
2019-03-23T00:24:31.652Z,6.30
2019-03-23T00:27:04.054Z,6.73
2019-03-23T00:29:35.035Z,6.53
2019-03-23T00:32:04.660Z,6.27
2019-03-23T00:34:35.462Z,6.60
2019-03-23T00:37:05.149Z,6.37
2019-03-23T00:39:34.764Z,5.77
2019-03-23T00:42:04.381Z,6.47
2019-03-23T00:44:34.002Z,5.93
2019-03-23T00:47:03.589Z,5.87
2019-03-23T00:49:33.276Z,6.47
2019-03-23T00:52:02.884Z,6.63
2019-03-23T00:54:32.490Z,6.77
2019-03-23T00:57:04.674Z,7.17
2019-03-23T00:59:34.305Z,7.30
2019-03-23T01:02:03.989Z,7.33
2019-03-23T01:04:34.680Z,6.90
2019-03-23T01:07:04.701Z,7.07
2019-03-23T01:09:34.325Z,6.10
2019-03-23T01:12:04.104Z,6.53
2019-03-23T01:14:37.155Z,6.50
2019-03-23T01:17:06.775Z,6.97
2019-03-23T01:19:36.400Z,6.90
2019-03-23T01:22:07.391Z,6.50
2019-03-23T01:24:36.995Z,6.50
2019-03-23T01:27:06.645Z,6.57
2019-03-23T01:29:37.261Z,7.00
2019-03-23T01:32:09.080Z,6.80
2019-03-23T01:34:38.656Z,7.43
2019-03-23T01:37:08.320Z,7.77
2019-03-23T01:39:40.271Z,6.87
2019-03-23T01:42:10.058Z,6.93
2019-03-23T01:44:39.714Z,7.33
2019-03-23T01:47:09.449Z,7.23
2019-03-23T01:49:39.033Z,8.33
2019-03-23T01:52:09.752Z,7.67
2019-03-23T01:54:39.390Z,8.47
2019-03-23T01:57:11.342Z,7.10
2019-03-23T01:59:42.353Z,7.03
2019-03-23T02:02:12.090Z,7.27
2019-03-23T02:04:41.712Z,7.10
2019-03-23T02:07:14.364Z,7.27
2019-03-23T02:09:45.006Z,6.80
2019-03-23T02:12:16.693Z,7.40
2019-03-23T02:14:46.365Z,7.00
2019-03-23T02:17:16.103Z,6.53
2019-03-23T02:19:45.853Z,7.23
2019-03-23T02:22:15.450Z,7.57
2019-03-23T02:24:45.144Z,6.57
2019-03-23T02:27:14.859Z,7.30
2019-03-23T02:29:44.515Z,7.00
2019-03-23T02:32:14.182Z,6.53
2019-03-23T02:34:43.847Z,6.93
2019-03-23T02:37:26.916Z,7.70
2019-03-23T02:39:44.757Z,7.30
2019-03-23T02:42:14.396Z,7.57
2019-03-23T02:44:44.051Z,7.70
2019-03-23T02:47:15.531Z,7.97
2019-03-23T02:49:45.221Z,8.87
2019-03-23T02:52:14.886Z,9.07
2019-03-23T02:54:44.519Z,9.33
2019-03-23T02:57:14.184Z,9.70
2019-03-23T02:59:43.969Z,10.17
2019-03-23T03:02:13.607Z,10.40
2019-03-23T03:04:43.270Z,11.07
2019-03-23T03:07:12.950Z,9.33
2019-03-23T03:09:42.561Z,9.03
2019-03-23T03:12:12.190Z,8.03
2019-03-23T03:14:41.946Z,9.33
2019-03-23T03:17:11.669Z,10.43
2019-03-23T03:19:41.362Z,11.07
2019-03-23T03:22:10.984Z,11.20
2019-03-23T03:24:41.615Z,11.30
2019-03-23T03:27:11.303Z,11.07
2019-03-23T03:29:43.375Z,11.33
2019-03-23T03:32:13.145Z,11.20
2019-03-23T03:34:44.156Z,9.97
2019-03-23T03:37:13.896Z,10.10
2019-03-23T03:39:43.833Z,10.37
2019-03-23T03:42:13.585Z,10.67
2019-03-23T03:44:44.507Z,9.83
2019-03-23T03:47:14.226Z,10.90
2019-03-23T03:49:45.954Z,10.17
2019-03-23T03:52:15.529Z,11.17
2019-03-23T03:54:45.170Z,10.63
2019-03-23T03:57:15.157Z,10.57
2019-03-23T03:59:44.792Z,10.53
2019-03-23T04:02:16.287Z,10.33
2019-03-23T04:04:49.343Z,10.63
2019-03-23T04:07:19.155Z,10.90
2019-03-23T04:09:48.821Z,11.07
2019-03-23T04:12:18.444Z,11.37
2019-03-23T04:14:49.964Z,10.03
2019-03-23T04:17:21.923Z,10.80
2019-03-23T04:19:51.582Z,10.30
2019-03-23T04:22:24.521Z,9.93
2019-03-23T04:24:56.144Z,9.97
2019-03-23T04:27:26.060Z,9.20
2019-03-23T04:29:59.679Z,9.27
2019-03-23T04:32:29.990Z,10.07
2019-03-23T04:35:01.330Z,8.80
2019-03-23T04:37:34.871Z,9.63
2019-03-23T04:40:04.720Z,8.90
2019-03-23T04:42:34.414Z,8.93
2019-03-23T04:45:05.419Z,9.43
2019-03-23T04:47:35.172Z,9.77
2019-03-23T04:50:05.301Z,9.60
2019-03-23T04:52:38.535Z,9.57
2019-03-23T04:55:10.230Z,8.47
2019-03-23T04:57:40.844Z,9.57
2019-03-23T05:00:11.123Z,9.00
2019-03-23T05:02:41.193Z,9.13
2019-03-23T05:05:15.111Z,9.50
2019-03-23T05:07:47.325Z,9.77
2019-03-23T05:10:17.003Z,9.87
2019-03-23T05:12:46.727Z,10.20
2019-03-23T05:15:16.451Z,9.43
2019-03-23T05:17:46.144Z,9.50
2019-03-23T05:20:28.267Z,8.97
2019-03-23T05:22:59.598Z,8.70
2019-03-23T05:25:29.216Z,8.20
2019-03-23T05:28:01.712Z,8.97
2019-03-23T05:30:31.295Z,8.33
2019-03-23T05:33:03.233Z,8.23
2019-03-23T05:35:35.241Z,8.77
2019-03-23T05:38:04.912Z,8.57
2019-03-23T05:40:34.549Z,8.60
2019-03-23T05:43:04.236Z,8.90
2019-03-23T05:45:33.843Z,8.47
2019-03-23T05:48:03.575Z,8.37
2019-03-23T05:50:36.251Z,10.63
2019-03-23T05:53:07.240Z,9.80
2019-03-23T05:55:36.950Z,9.57
2019-03-23T05:58:06.691Z,9.70
2019-03-23T06:00:36.295Z,9.97
2019-03-23T06:03:05.981Z,9.53
2019-03-23T06:05:35.651Z,10.33
2019-03-23T06:08:05.301Z,10.33
2019-03-23T06:10:34.920Z,11.50
2019-03-23T06:13:04.590Z,10.83
2019-03-23T06:15:36.618Z,9.47
2019-03-23T06:18:06.376Z,10.10
2019-03-23T06:20:36.027Z,9.63
2019-03-23T06:23:05.788Z,9.27
2019-03-23T06:25:35.675Z,8.97
2019-03-23T06:28:05.355Z,9.77
2019-03-23T06:30:35.027Z,9.00
2019-03-23T06:33:04.700Z,9.50
2019-03-23T06:35:36.563Z,10.23
2019-03-23T06:38:06.267Z,10.30
2019-03-23T06:40:37.939Z,10.80
2019-03-23T06:43:09.641Z,11.03
2019-03-23T06:45:39.373Z,11.33
2019-03-23T06:48:09.034Z,12.20
2019-03-23T06:50:38.859Z,12.03
2019-03-23T06:53:09.730Z,11.00
2019-03-23T06:55:39.591Z,10.13
2019-03-23T06:58:09.356Z,10.17
2019-03-23T07:00:39.013Z,11.03
2019-03-23T07:03:12.143Z,11.83
2019-03-23T07:05:41.904Z,12.17
2019-03-23T07:08:11.589Z,12.93
2019-03-23T07:10:41.419Z,10.67
2019-03-23T07:13:11.108Z,10.13
2019-03-23T07:15:43.038Z,12.00
2019-03-23T07:18:12.649Z,14.37
2019-03-23T07:20:42.386Z,11.23
2019-03-23T07:23:12.051Z,11.27
2019-03-23T07:25:43.229Z,10.30
2019-03-23T07:28:12.927Z,9.87
2019-03-23T07:30:42.587Z,10.40
2019-03-23T07:33:14.783Z,10.17
2019-03-23T07:35:44.515Z,10.53
2019-03-23T07:38:14.496Z,9.13
2019-03-23T07:40:47.025Z,9.77
2019-03-23T07:43:16.961Z,10.40
2019-03-23T07:45:46.585Z,11.03
2019-03-23T07:48:16.177Z,10.70
2019-03-23T07:50:45.859Z,11.13
2019-03-23T07:53:15.635Z,10.27
2019-03-23T07:55:45.316Z,11.23
2019-03-23T07:58:15.040Z,11.23
2019-03-23T08:00:46.030Z,11.83
2019-03-23T08:03:16.819Z,11.47
2019-03-23T08:05:46.534Z,11.17
2019-03-23T08:08:16.166Z,12.03
2019-03-23T08:10:46.374Z,12.03
2019-03-23T08:13:17.596Z,11.90
2019-03-23T08:15:47.231Z,12.47
2019-03-23T08:18:17.003Z,12.83
2019-03-23T08:20:46.983Z,13.53
2019-03-23T08:23:16.846Z,13.47
2019-03-23T08:25:46.848Z,13.77
2019-03-23T08:28:16.570Z,12.93
2019-03-23T08:30:46.376Z,14.00
2019-03-23T08:33:18.378Z,14.43
2019-03-23T08:35:47.972Z,13.93
2019-03-23T08:38:17.948Z,15.07
2019-03-23T08:40:47.972Z,13.27
2019-03-23T08:43:17.892Z,14.60
2019-03-23T08:45:47.730Z,14.93
2019-03-23T08:48:17.332Z,15.73
2019-03-23T08:50:48.910Z,15.77
2019-03-23T08:53:24.465Z,17.93
2019-03-23T08:55:54.269Z,16.67
2019-03-23T08:58:31.150Z,17.13
2019-03-23T09:01:01.261Z,15.70
2019-03-23T09:03:32.214Z,17.23
2019-03-23T09:06:01.889Z,17.57
2019-03-23T09:08:33.907Z,16.83
2019-03-23T09:11:03.646Z,18.10
2019-03-23T09:13:40.515Z,17.80
2019-03-23T09:16:05.775Z,17.83
2019-03-23T09:18:35.395Z,17.77
2019-03-23T09:21:05.033Z,16.87
2019-03-23T09:23:36.131Z,18.27
2019-03-23T09:26:05.785Z,19.20
2019-03-23T09:28:35.406Z,18.40
2019-03-23T09:31:05.093Z,19.53
2019-03-23T09:33:34.715Z,18.97
2019-03-23T09:36:04.361Z,19.70
2019-03-23T09:38:33.990Z,19.30
2019-03-23T09:41:03.651Z,19.93
2019-03-23T09:43:33.330Z,21.23
2019-03-23T09:46:04.094Z,20.23
2019-03-23T09:48:52.200Z,21.80
2019-03-23T09:51:23.634Z,22.53
2019-03-23T09:53:53.258Z,22.07
2019-03-23T09:56:25.242Z,24.93
2019-03-23T09:58:54.885Z,24.43
2019-03-23T10:01:24.550Z,23.13
2019-03-23T10:03:56.477Z,24.17
2019-03-23T10:06:26.090Z,24.90
2019-03-23T10:08:55.761Z,24.27
2019-03-23T10:11:27.144Z,25.87
2019-03-23T10:14:04.922Z,25.47
2019-03-23T10:16:34.825Z,26.53
2019-03-23T10:19:04.616Z,25.07
2019-03-23T10:21:34.336Z,27.23
2019-03-23T10:24:05.467Z,27.60
2019-03-23T10:26:35.105Z,28.00
2019-03-23T10:29:04.716Z,27.97
2019-03-23T10:31:34.311Z,26.97
2019-03-23T10:34:03.883Z,26.57
2019-03-23T10:36:33.574Z,29.47
2019-03-23T10:39:05.170Z,30.40
2019-03-23T10:41:35.078Z,27.57
2019-03-23T10:44:06.789Z,28.63
2019-03-23T10:46:36.435Z,29.20
2019-03-23T10:49:06.081Z,29.30
2019-03-23T10:51:37.102Z,27.03
2019-03-23T10:54:06.806Z,30.33
2019-03-23T10:56:36.374Z,30.50
2019-03-23T10:59:06.057Z,29.17
2019-03-23T11:01:35.699Z,29.83
2019-03-23T11:04:05.348Z,28.87
2019-03-23T11:06:35.032Z,29.50
2019-03-23T11:09:05.913Z,29.83
2019-03-23T11:11:35.523Z,30.77
2019-03-23T11:14:05.143Z,29.77
2019-03-23T11:16:34.696Z,29.87
2019-03-23T11:19:13.279Z,31.87
2019-03-23T11:21:36.520Z,30.07
2019-03-23T11:24:07.874Z,31.43
2019-03-23T11:26:38.616Z,31.80
2019-03-23T11:29:08.544Z,31.60
2019-03-23T11:31:38.311Z,30.63
2019-03-23T11:34:17.504Z,31.30
2019-03-23T11:36:40.519Z,32.10
2019-03-23T11:39:10.202Z,31.60
2019-03-23T11:41:39.849Z,31.17
2019-03-23T11:44:10.727Z,31.07
2019-03-23T11:46:42.404Z,27.63
2019-03-23T11:49:12.110Z,31.10
2019-03-23T11:51:41.720Z,29.73
2019-03-23T11:54:11.401Z,33.17
2019-03-23T11:56:42.298Z,31.93
2019-03-23T11:59:15.370Z,31.50
2019-03-23T12:01:51.753Z,31.53
2019-03-23T12:04:19.906Z,31.50
2019-03-23T12:06:51.757Z,29.77
2019-03-23T12:09:22.614Z,29.13
2019-03-23T12:11:52.274Z,30.20
2019-03-23T12:14:23.453Z,31.60
2019-03-23T12:16:53.084Z,28.87
2019-03-23T12:19:23.109Z,31.07
2019-03-23T12:21:52.948Z,29.30
2019-03-23T12:24:23.693Z,29.13
2019-03-23T12:26:55.466Z,28.30
2019-03-23T12:29:25.112Z,27.67
2019-03-23T12:31:54.785Z,30.70
2019-03-23T12:34:25.413Z,29.90
2019-03-23T12:36:55.029Z,29.17
2019-03-23T12:39:24.733Z,28.73
2019-03-23T12:41:54.378Z,30.30
2019-03-23T12:44:23.925Z,29.67
2019-03-23T12:46:53.596Z,30.40
2019-03-23T12:49:24.512Z,30.23
2019-03-23T12:51:54.176Z,32.37
2019-03-23T12:54:23.873Z,31.03
2019-03-23T12:56:53.613Z,29.23
2019-03-23T12:59:23.301Z,28.40
2019-03-23T13:01:53.015Z,27.17
2019-03-23T13:04:22.897Z,27.90
2019-03-23T13:06:52.868Z,27.93
2019-03-23T13:09:22.773Z,28.53
2019-03-23T13:11:52.419Z,26.27
2019-03-23T13:14:22.936Z,27.33
2019-03-23T13:16:52.547Z,27.13
2019-03-23T13:19:24.415Z,28.37
2019-03-23T13:21:54.569Z,26.80
2019-03-23T13:24:26.166Z,26.70
2019-03-23T13:26:55.829Z,26.57
2019-03-23T13:29:25.759Z,28.10
2019-03-23T13:31:56.335Z,28.40
2019-03-23T13:34:27.104Z,29.13
2019-03-23T13:36:56.810Z,27.07
2019-03-23T13:39:31.800Z,30.27
2019-03-23T13:42:01.414Z,30.80
2019-03-23T13:44:32.304Z,30.27
2019-03-23T13:47:04.690Z,27.27
2019-03-23T13:49:34.658Z,27.43
2019-03-23T13:52:04.354Z,28.37
2019-03-23T13:54:35.750Z,25.83
2019-03-23T13:57:05.824Z,26.40
2019-03-23T13:59:35.795Z,26.63
2019-03-23T14:02:05.478Z,26.17
2019-03-23T14:04:36.659Z,25.77
2019-03-23T14:07:06.297Z,27.07
2019-03-23T14:09:38.498Z,27.27
2019-03-23T14:12:08.140Z,28.73
2019-03-23T14:14:37.829Z,25.50
2019-03-23T14:17:07.649Z,26.53
2019-03-23T14:19:38.496Z,28.00
2019-03-23T14:22:09.214Z,28.47
2019-03-23T14:24:42.611Z,25.47
2019-03-23T14:27:12.472Z,27.93
2019-03-23T14:29:45.518Z,25.97
2019-03-23T14:32:15.263Z,25.27
2019-03-23T14:34:46.176Z,25.03
2019-03-23T14:37:16.113Z,28.23
2019-03-23T14:39:46.368Z,26.90
2019-03-23T14:42:16.327Z,26.70
2019-03-23T14:44:47.050Z,28.20
2019-03-23T14:47:17.052Z,29.23
2019-03-23T14:49:49.065Z,29.03
2019-03-23T14:52:18.869Z,27.70
2019-03-23T14:54:54.721Z,27.40
2019-03-23T14:57:24.983Z,29.13
2019-03-23T14:59:54.615Z,28.30
2019-03-23T15:02:26.560Z,28.97
2019-03-23T15:04:57.666Z,27.13
2019-03-23T15:07:27.244Z,28.43
2019-03-23T15:09:58.299Z,27.63
2019-03-23T15:12:28.202Z,27.83
2019-03-23T15:14:57.807Z,28.43
2019-03-23T15:17:27.487Z,27.50
2019-03-23T15:19:57.269Z,26.70
2019-03-23T15:22:29.093Z,25.97
2019-03-23T15:24:59.852Z,34.00
2019-03-23T15:27:29.590Z,30.40
2019-03-23T15:30:08.909Z,41.00
2019-03-23T15:32:38.996Z,33.80
2019-03-23T15:35:11.903Z,35.87
2019-03-23T15:37:42.613Z,33.70
2019-03-23T15:40:12.409Z,34.30
2019-03-23T15:42:42.075Z,33.47
2019-03-23T15:45:12.594Z,35.03
2019-03-23T15:47:42.228Z,34.27
2019-03-23T15:50:11.898Z,34.10
2019-03-23T15:52:41.538Z,32.80
2019-03-23T15:55:11.249Z,33.20
2019-03-23T15:57:41.255Z,32.83
2019-03-23T16:00:11.901Z,32.03
2019-03-23T16:02:41.559Z,30.80
2019-03-23T16:05:11.459Z,32.40
2019-03-23T16:07:41.217Z,28.97
2019-03-23T16:10:14.178Z,29.27
2019-03-23T16:12:47.042Z,29.93
2019-03-23T16:15:17.181Z,28.97
2019-03-23T16:17:46.922Z,28.17
2019-03-23T16:20:18.583Z,27.03
2019-03-23T16:22:50.545Z,27.70
2019-03-23T16:25:20.794Z,27.20
2019-03-23T16:27:50.697Z,27.50
2019-03-23T16:30:32.492Z,25.83
2019-03-23T16:33:04.467Z,25.77
2019-03-23T16:35:35.236Z,27.03
2019-03-23T16:38:04.923Z,26.80
2019-03-23T16:40:34.546Z,26.23
2019-03-23T16:43:06.261Z,27.00
2019-03-23T16:45:36.806Z,26.27
2019-03-23T16:48:07.561Z,29.27
2019-03-23T16:50:40.754Z,27.10
2019-03-23T16:53:10.415Z,26.23
2019-03-23T16:55:41.463Z,27.43
2019-03-23T16:58:15.971Z,25.77
2019-03-23T17:00:42.561Z,25.40
2019-03-23T17:03:14.475Z,27.17
2019-03-23T17:05:45.606Z,27.40
2019-03-23T17:08:17.705Z,25.37
2019-03-23T17:10:56.605Z,29.10
2019-03-23T17:13:26.321Z,29.90
2019-03-23T17:15:57.127Z,29.90
2019-03-23T17:18:26.906Z,29.83
2019-03-23T17:20:56.603Z,29.93
2019-03-23T17:23:29.622Z,30.13
2019-03-23T17:26:00.833Z,31.37
2019-03-23T17:28:30.463Z,31.27
2019-03-23T17:31:02.184Z,30.97
2019-03-23T17:33:36.932Z,32.33
2019-03-23T17:36:07.616Z,30.57
2019-03-23T17:38:41.529Z,33.93
2019-03-23T17:41:13.494Z,32.47
2019-03-23T17:43:43.214Z,32.27
2019-03-23T17:46:13.994Z,32.37
2019-03-23T17:48:44.003Z,31.93
2019-03-23T17:51:13.796Z,31.80
2019-03-23T17:53:43.403Z,32.57
2019-03-23T17:56:16.994Z,34.27
2019-03-23T17:58:48.970Z,32.90
2019-03-23T18:01:19.693Z,34.53
2019-03-23T18:03:51.647Z,35.40
2019-03-23T18:06:22.457Z,35.10
2019-03-23T18:08:52.075Z,34.50
2019-03-23T18:11:23.998Z,35.27
2019-03-23T18:13:53.749Z,35.47
2019-03-23T18:16:24.717Z,34.27
2019-03-23T18:18:54.377Z,34.73
2019-03-23T18:21:25.938Z,35.43
2019-03-23T18:23:55.859Z,34.10
2019-03-23T18:26:27.324Z,41.43
2019-03-23T18:28:57.195Z,35.03
2019-03-23T18:31:27.252Z,36.50
2019-03-23T18:33:57.527Z,36.77
2019-03-23T18:36:28.449Z,36.63
2019-03-23T18:38:59.117Z,36.50
2019-03-23T18:41:28.909Z,37.13
2019-03-23T18:43:59.177Z,35.47
2019-03-23T18:46:30.594Z,34.93
2019-03-23T18:49:00.494Z,38.33
2019-03-23T18:51:30.148Z,38.10
2019-03-23T18:54:00.047Z,38.77
2019-03-23T18:56:30.805Z,40.20
2019-03-23T18:59:00.613Z,39.63
2019-03-23T19:01:30.260Z,38.90
2019-03-23T19:04:01.804Z,40.30
2019-03-23T19:06:33.443Z,38.73
2019-03-23T19:09:03.853Z,39.03
2019-03-23T19:11:33.441Z,38.97
2019-03-23T19:14:05.587Z,41.10
2019-03-23T19:16:35.483Z,38.63
2019-03-23T19:19:05.213Z,40.20
2019-03-23T19:21:34.945Z,36.73
2019-03-23T19:24:04.549Z,37.13
2019-03-23T19:26:34.333Z,37.23
2019-03-23T19:29:03.889Z,38.30
2019-03-23T19:31:33.574Z,38.07
2019-03-23T19:34:03.232Z,39.83
2019-03-23T19:36:32.912Z,41.60
2019-03-23T19:39:05.108Z,39.17
2019-03-23T19:41:34.840Z,39.63
2019-03-23T19:44:04.633Z,37.37
2019-03-23T19:46:35.465Z,41.70
2019-03-23T19:49:05.174Z,39.97
2019-03-23T19:51:34.851Z,42.40
2019-03-23T19:54:04.784Z,39.17
2019-03-23T19:56:34.676Z,38.43
2019-03-23T19:59:04.308Z,43.47
2019-03-23T20:01:34.010Z,47.07
2019-03-23T20:04:04.296Z,50.17
2019-03-23T20:06:33.983Z,48.30
2019-03-23T20:09:04.181Z,48.90
2019-03-23T20:11:33.914Z,48.33
2019-03-23T20:14:04.766Z,61.27
2019-03-23T20:16:35.918Z,53.03
2019-03-23T20:19:05.671Z,53.23
2019-03-23T20:21:35.596Z,51.80
2019-03-23T20:24:05.519Z,51.53
2019-03-23T20:26:36.335Z,52.57
2019-03-23T20:29:06.033Z,51.77
2019-03-23T20:31:37.989Z,53.13
2019-03-23T20:34:09.039Z,52.27
2019-03-23T20:36:43.287Z,53.57
2019-03-23T20:39:12.915Z,52.87
2019-03-23T20:41:42.767Z,53.87
2019-03-23T20:44:13.633Z,51.53
2019-03-23T20:46:44.741Z,50.40
2019-03-23T20:49:14.412Z,51.43
2019-03-23T20:51:44.066Z,50.13
2019-03-23T20:54:14.871Z,50.20
2019-03-23T20:56:45.725Z,53.27
2019-03-23T20:59:15.736Z,51.87
2019-03-23T21:01:45.470Z,50.40
2019-03-23T21:04:15.094Z,49.97
2019-03-23T21:06:45.945Z,50.03
2019-03-23T21:09:15.623Z,50.47
2019-03-23T21:11:45.241Z,51.10
2019-03-23T21:14:20.137Z,50.23
2019-03-23T21:16:47.606Z,49.77
2019-03-23T21:19:17.308Z,51.27
2019-03-23T21:21:49.053Z,49.53
2019-03-23T21:24:18.739Z,49.83
2019-03-23T21:26:48.460Z,50.70
2019-03-23T21:29:18.172Z,51.03
2019-03-23T21:31:47.857Z,50.00
2019-03-23T21:34:17.644Z,50.93
2019-03-23T21:36:47.330Z,52.10
2019-03-23T21:39:17.039Z,51.30
2019-03-23T21:41:46.687Z,50.87
2019-03-23T21:44:18.722Z,48.53
2019-03-23T21:46:50.487Z,48.40
2019-03-23T21:49:20.079Z,50.27
2019-03-23T21:51:49.753Z,47.47
2019-03-23T21:54:20.422Z,47.07
2019-03-23T21:56:51.965Z,45.77
2019-03-23T21:59:21.702Z,50.20
2019-03-23T22:01:51.435Z,48.70
2019-03-23T22:04:21.103Z,50.13
2019-03-23T22:06:52.052Z,47.97
2019-03-23T22:09:21.655Z,50.23
2019-03-23T22:12:01.719Z,50.53
2019-03-23T22:14:41.278Z,50.23
2019-03-23T22:17:08.996Z,48.47
2019-03-23T22:19:38.608Z,50.97
2019-03-23T22:22:08.272Z,46.50
2019-03-23T22:24:38.161Z,46.53
2019-03-23T22:27:10.503Z,46.93
2019-03-23T22:29:41.224Z,47.20
2019-03-23T22:32:14.698Z,48.53
2019-03-23T22:34:49.415Z,46.53
2019-03-23T22:37:23.976Z,48.57
2019-03-23T22:39:55.307Z,46.23
2019-03-23T22:42:25.041Z,46.63
2019-03-23T22:44:54.698Z,45.23
2019-03-23T22:47:25.574Z,47.37
2019-03-23T22:49:55.152Z,48.07
2019-03-23T22:52:26.751Z,48.07
2019-03-23T22:54:56.341Z,46.60
2019-03-23T22:57:26.699Z,46.43
2019-03-23T22:59:56.397Z,45.40
2019-03-23T23:02:26.054Z,43.17
2019-03-23T23:04:55.640Z,44.60
2019-03-23T23:07:27.873Z,46.40
2019-03-23T23:09:57.502Z,44.27
2019-03-23T23:12:27.262Z,45.63
2019-03-23T23:15:04.433Z,44.40
2019-03-23T23:17:28.318Z,46.47
2019-03-23T23:19:57.972Z,43.97
2019-03-23T23:22:27.618Z,45.20
2019-03-23T23:24:57.328Z,47.40
2019-03-23T23:27:26.967Z,47.80
2019-03-23T23:29:56.609Z,46.90
2019-03-23T23:32:26.242Z,46.43
2019-03-23T23:34:55.903Z,46.77
2019-03-23T23:37:25.531Z,47.10
2019-03-23T23:39:55.144Z,44.57
2019-03-23T23:42:26.943Z,43.93
2019-03-23T23:44:56.659Z,44.73
2019-03-23T23:47:27.941Z,41.70
2019-03-23T23:50:01.645Z,44.93
2019-03-23T23:52:31.384Z,43.07
2019-03-23T23:55:01.059Z,45.20
2019-03-23T23:57:30.745Z,45.17
